Time;durP1;ratioP1;P1;durP2;ratioP2;P2;SDS_P1;SDS_P2;PMS_P1;PMS_P2;Temp;Humidity;BMP_temperature;BMP_pressure;BME280_temperature;BME280_humidity;BME280_pressure;Samples;Min_cycle;Max_cycle;Signal;HPM_P1;HPM_P2
2022/09/27 00:02:27;;;;;;;17.27;11.15;;;;;;;;;;10245701;29;20027;-77
2022/09/27 00:07:27;;;;;;;18.93;10.93;;;;;;;;;;10226417;28;20050;-73
2022/09/27 00:12:27;;;;;;;19.35;11.10;;;;;;;;;;10228192;28;20011;-72
2022/09/27 00:17:28;;;;;;;19.80;10.00;;;;;;;;;;10228519;29;20027;-77
2022/09/27 00:22:28;;;;;;;14.77;10.40;;;;;;;;;;10228391;29;20019;-77
2022/09/27 00:27:29;;;;;;;15.95;10.75;;;;;;;;;;10227287;28;20019;-77
2022/09/27 00:32:29;;;;;;;18.65;12.05;;;;;;;;;;10205116;28;20122;-73
2022/09/27 00:37:29;;;;;;;20.75;12.55;;;;;;;;;;10226844;29;20468;-74
2022/09/27 00:42:29;;;;;;;18.23;11.35;;;;;;;;;;10243674;28;20027;-74
2022/09/27 00:47:35;;;;;;;20.13;10.65;;;;;;;;;;10226107;28;20493;-79
2022/09/27 00:52:40;;;;;;;14.98;8.95;;;;;;;;;;10209763;28;20029;-77
2022/09/27 00:57:41;;;;;;;14.60;9.68;;;;;;;;;;10239834;28;20078;-78
2022/09/27 01:02:44;;;;;;;15.65;9.00;;;;;;;;;;10226243;29;20045;-77
2022/09/27 01:07:44;;;;;;;14.75;9.63;;;;;;;;;;10225382;29;20051;-77
2022/09/27 01:12:47;;;;;;;21.40;11.40;;;;;;;;;;10225653;28;20023;-74
2022/09/27 01:17:59;;;;;;;15.30;9.57;;;;;;;;;;10585406;23;20143;-77
2022/09/27 01:23:09;;;;;;;18.30;10.85;;;;;;;;;;10241917;28;20019;-76
2022/09/27 01:28:09;;;;;;;22.35;11.02;;;;;;;;;;10241491;28;20054;-75
2022/09/27 01:33:18;;;;;;;19.40;9.85;;;;;;;;;;10240934;28;20097;-72
2022/09/27 01:38:19;;;;;;;15.85;10.75;;;;;;;;;;10255636;28;20023;-76
2022/09/27 01:43:26;;;;;;;17.45;9.27;;;;;;;;;;10240584;28;20023;-73
2022/09/27 01:48:31;;;;;;;24.93;12.37;;;;;;;;;;10239982;28;20041;-72
2022/09/27 01:53:38;;;;;;;21.27;11.68;;;;;;;;;;10239869;28;20019;-74
2022/09/27 01:58:42;;;;;;;18.70;11.65;;;;;;;;;;10236313;28;20042;-79
2022/09/27 02:03:45;;;;;;;20.15;11.85;;;;;;;;;;10237026;28;20086;-77
2022/09/27 02:08:49;;;;;;;20.67;13.23;;;;;;;;;;10234341;28;20021;-74
2022/09/27 02:14:19;;;;;;;21.83;13.30;;;;;;;;;;10239789;28;20528;-77
2022/09/27 02:19:25;;;;;;;23.27;13.00;;;;;;;;;;10231184;28;20039;-75
2022/09/27 02:24:49;;;;;;;20.17;12.90;;;;;;;;;;10238574;28;20437;-73
2022/09/27 02:29:52;;;;;;;26.23;13.55;;;;;;;;;;10224168;28;20037;-74
2022/09/27 02:34:54;;;;;;;24.15;13.68;;;;;;;;;;10253009;28;20118;-73
2022/09/27 02:39:56;;;;;;;25.58;14.52;;;;;;;;;;10239386;28;20089;-77
2022/09/27 02:44:56;;;;;;;21.48;12.73;;;;;;;;;;10239293;28;20081;-80
2022/09/27 02:50:00;;;;;;;20.40;12.70;;;;;;;;;;10240471;28;20027;-75
2022/09/27 02:55:18;;;;;;;24.30;13.25;;;;;;;;;;10239749;28;20282;-78
2022/09/27 03:00:18;;;;;;;;;;;;;;;;;;10254425;28;20027;-77
2022/09/27 03:05:20;;;;;;;19.75;12.38;;;;;;;;;;10240477;28;19918;-76
2022/09/27 03:10:22;;;;;;;20.95;13.80;;;;;;;;;;10245817;28;20026;-73
2022/09/27 03:15:23;;;;;;;21.33;13.70;;;;;;;;;;10258114;28;20058;-75
2022/09/27 03:20:23;;;;;;;25.38;14.23;;;;;;;;;;10269410;28;20519;-77
2022/09/27 03:25:23;;;;;;;23.02;15.15;;;;;;;;;;10268584;28;20434;-74
2022/09/27 03:30:23;;;;;;;26.00;14.93;;;;;;;;;;10265822;28;20049;-78
2022/09/27 03:35:24;;;;;;;26.75;14.85;;;;;;;;;;10268859;28;20122;-76
2022/09/27 03:40:25;;;;;;;30.65;15.52;;;;;;;;;;10266993;28;20023;-74
2022/09/27 03:45:25;;;;;;;26.07;15.27;;;;;;;;;;10268500;28;20161;-73
2022/09/27 03:50:25;;;;;;;24.95;15.02;;;;;;;;;;10285814;28;20648;-73
2022/09/27 03:55:26;;;;;;;35.83;18.90;;;;;;;;;;10267582;28;20058;-77
2022/09/27 04:00:26;;;;;;;32.35;19.48;;;;;;;;;;10265949;28;20093;-75
2022/09/27 04:05:27;;;;;;;29.27;17.02;;;;;;;;;;10282894;28;20031;-77
2022/09/27 04:10:27;;;;;;;33.53;18.10;;;;;;;;;;10265563;28;20599;-73
2022/09/27 04:15:28;;;;;;;33.33;18.42;;;;;;;;;;10266364;28;20085;-79
2022/09/27 04:20:28;;;;;;;34.67;18.55;;;;;;;;;;10266334;28;20027;-79
2022/09/27 04:25:28;;;;;;;47.58;22.85;;;;;;;;;;10281251;28;21911;-73
2022/09/27 04:30:28;;;;;;;34.15;19.42;;;;;;;;;;10266718;28;20592;-77
2022/09/27 04:40:47;;;;;;;40.35;21.17;;;;;;;;;;10282437;28;20022;-77
2022/09/27 04:45:48;;;;;;;43.58;22.80;;;;;;;;;;10265642;28;20479;-74
2022/09/27 04:50:59;;;;;;;42.22;22.70;;;;;;;;;;10265895;28;20041;-78
2022/09/27 04:56:05;;;;;;;43.53;22.35;;;;;;;;;;10267004;28;20019;-74
2022/09/27 05:01:06;;;;;;;41.60;21.90;;;;;;;;;;10255528;28;20026;-73
2022/09/27 05:06:06;;;;;;;39.70;21.70;;;;;;;;;;10261670;28;20493;-74
2022/09/27 05:11:06;;;;;;;36.38;19.77;;;;;;;;;;10277982;28;20373;-73
2022/09/27 05:16:07;;;;;;;34.78;19.95;;;;;;;;;;10259630;28;20051;-75
2022/09/27 05:21:07;;;;;;;38.63;21.98;;;;;;;;;;10252014;28;20106;-75
2022/09/27 05:26:07;;;;;;;38.20;23.00;;;;;;;;;;10260054;28;20097;-74
2022/09/27 05:31:07;;;;;;;39.90;21.48;;;;;;;;;;10264906;28;20931;-74
2022/09/27 05:36:08;;;;;;;44.60;24.45;;;;;;;;;;10278272;28;20546;-78
2022/09/27 05:41:08;;;;;;;46.70;23.57;;;;;;;;;;10279048;28;20117;-72
2022/09/27 05:46:09;;;;;;;41.70;23.38;;;;;;;;;;10261170;28;20598;-73
2022/09/27 05:51:09;;;;;;;40.50;21.73;;;;;;;;;;10257374;28;20023;-76
2022/09/27 05:56:10;;;;;;;42.45;22.23;;;;;;;;;;10258477;28;20029;-73
2022/09/27 06:01:10;;;;;;;39.95;20.98;;;;;;;;;;10260379;28;20422;-74
2022/09/27 06:06:10;;;;;;;41.35;23.35;;;;;;;;;;10262862;28;20050;-78
2022/09/27 06:11:11;;;;;;;41.03;22.77;;;;;;;;;;10281637;28;20050;-75
2022/09/27 06:16:11;;;;;;;40.80;22.75;;;;;;;;;;10263033;28;20054;-72
2022/09/27 06:21:12;;;;;;;40.43;21.60;;;;;;;;;;10263606;28;20178;-73
2022/09/27 06:26:12;;;;;;;43.83;23.58;;;;;;;;;;10263025;28;20262;-74
2022/09/27 06:31:14;;;;;;;45.28;21.58;;;;;;;;;;10260437;28;20027;-72
2022/09/27 06:36:14;;;;;;;39.10;21.55;;;;;;;;;;10276186;28;20019;-73
2022/09/27 06:41:15;;;;;;;38.78;20.65;;;;;;;;;;10283165;28;20023;-73
2022/09/27 06:46:15;;;;;;;39.22;22.00;;;;;;;;;;10269697;28;20029;-77
2022/09/27 06:51:16;;;;;;;45.22;21.85;;;;;;;;;;10287661;28;20022;-73
2022/09/27 06:56:16;;;;;;;35.72;21.15;;;;;;;;;;10269987;28;20085;-77
2022/09/27 07:01:16;;;;;;;31.90;19.17;;;;;;;;;;10269526;28;20033;-75
2022/09/27 07:06:19;;;;;;;33.03;18.70;;;;;;;;;;10269366;28;20285;-78
2022/09/27 07:11:22;;;;;;;34.13;18.60;;;;;;;;;;10267701;28;20455;-74
2022/09/27 07:16:22;;;;;;;33.70;18.92;;;;;;;;;;10268299;28;20642;-77
2022/09/27 07:21:23;;;;;;;34.35;20.00;;;;;;;;;;10286521;28;20019;-78
2022/09/27 07:26:23;;;;;;;41.10;20.97;;;;;;;;;;10269724;28;20400;-74
2022/09/27 07:31:23;;;;;;;47.13;24.40;;;;;;;;;;10259715;28;20519;-76
2022/09/27 07:36:23;;;;;;;38.37;20.77;;;;;;;;;;10261234;28;20040;-74
2022/09/27 07:41:24;;;;;;;41.15;20.60;;;;;;;;;;10264797;28;20445;-74
2022/09/27 07:46:24;;;;;;;33.15;18.27;;;;;;;;;;10262325;28;20510;-74
2022/09/27 07:51:25;;;;;;;29.13;17.02;;;;;;;;;;10274556;28;20031;-77
2022/09/27 07:56:25;;;;;;;35.30;21.38;;;;;;;;;;10261236;28;20022;-77
2022/09/27 08:01:26;;;;;;;55.50;31.33;;;;;;;;;;10263827;28;20031;-77
2022/09/27 08:06:26;;;;;;;47.35;27.92;;;;;;;;;;10259486;28;20611;-78
2022/09/27 08:11:26;;;;;;;46.87;26.93;;;;;;;;;;10278054;28;20050;-77
2022/09/27 08:16:27;;;;;;;49.95;28.20;;;;;;;;;;10280097;28;20452;-75
2022/09/27 08:21:27;;;;;;;45.15;25.45;;;;;;;;;;10260545;28;20628;-79
2022/09/27 08:26:27;;;;;;;45.10;24.30;;;;;;;;;;10261436;28;20035;-78
2022/09/27 08:31:28;;;;;;;43.05;24.10;;;;;;;;;;10259710;28;20042;-74
2022/09/27 08:36:29;;;;;;;45.75;24.42;;;;;;;;;;10241683;28;20031;-73
2022/09/27 08:41:32;;;;;;;40.92;25.10;;;;;;;;;;10259580;28;20038;-72
2022/09/27 08:46:33;;;;;;;35.15;22.23;;;;;;;;;;10254740;28;20046;-76
2022/09/27 08:51:34;;;;;;;40.95;23.92;;;;;;;;;;10270601;28;20030;-79
2022/09/27 08:56:34;;;;;;;38.58;22.80;;;;;;;;;;10259193;28;20031;-75
2022/09/27 09:01:35;;;;;;;41.78;24.20;;;;;;;;;;10267051;28;20485;-74
2022/09/27 09:06:35;;;;;;;47.70;27.63;;;;;;;;;;10262634;28;20603;-75
2022/09/27 09:17:19;;;;;;;41.50;23.77;;;;;;;;;;10280984;28;20058;-75
2022/09/27 09:22:38;;;;;;;38.55;23.98;;;;;;;;;;10277090;28;20065;-74
2022/09/27 09:27:39;;;;;;;45.78;25.50;;;;;;;;;;10276758;28;20074;-75
2022/09/27 09:32:39;;;;;;;49.15;23.65;;;;;;;;;;10260823;28;20077;-79
2022/09/27 09:37:41;;;;;;;51.35;25.38;;;;;;;;;;10261110;28;20453;-79
2022/09/27 09:42:45;;;;;;;44.78;23.85;;;;;;;;;;10260357;28;20034;-75
2022/09/27 09:47:55;;;;;;;49.33;22.60;;;;;;;;;;10276726;28;20054;-77
2022/09/27 09:52:58;;;;;;;43.55;22.55;;;;;;;;;;10279674;28;20034;-76
2022/09/27 09:58:01;;;;;;;39.03;20.33;;;;;;;;;;10263754;28;20031;-77
2022/09/27 10:03:02;;;;;;;40.55;22.05;;;;;;;;;;10263030;28;20023;-75
2022/09/27 10:08:04;;;;;;;44.17;23.40;;;;;;;;;;10263449;28;20470;-77
2022/09/27 10:13:04;;;;;;;37.75;20.67;;;;;;;;;;10262737;28;20030;-75
2022/09/27 10:18:04;;;;;;;35.17;20.00;;;;;;;;;;10269580;28;20080;-76
2022/09/27 10:23:24;;;;;;;34.97;19.27;;;;;;;;;;10271134;28;20038;-79
2022/09/27 10:28:33;;;;;;;32.42;20.30;;;;;;;;;;10248582;28;20030;-75
2022/09/27 10:33:36;;;;;;;30.90;19.90;;;;;;;;;;10269667;28;20037;-76
2022/09/27 10:38:36;;;;;;;34.70;19.45;;;;;;;;;;10270616;28;20062;-72
2022/09/27 10:43:37;;;;;;;41.75;20.30;;;;;;;;;;10270665;28;20113;-72
2022/09/27 10:48:38;;;;;;;37.07;21.23;;;;;;;;;;10270823;28;20022;-78
2022/09/27 10:53:43;;;;;;;28.17;16.42;;;;;;;;;;10270370;28;20035;-76
2022/09/27 10:58:44;;;;;;;22.52;12.82;;;;;;;;;;10253940;28;20187;-73
2022/09/27 11:03:46;;;;;;;18.73;12.98;;;;;;;;;;10253871;28;20483;-75
2022/09/27 11:08:47;;;;;;;23.60;12.48;;;;;;;;;;10269743;28;20109;-76
2022/09/27 11:13:57;;;;;;;23.35;13.20;;;;;;;;;;10292236;28;20035;-72
2022/09/27 11:19:01;;;;;;;23.13;14.45;;;;;;;;;;10277618;28;20134;-77
2022/09/27 11:24:08;;;;;;;27.52;15.45;;;;;;;;;;10281343;28;20019;-74
2022/09/27 11:29:24;;;;;;;24.88;15.07;;;;;;;;;;10277990;28;20027;-71
2022/09/27 11:34:40;;;;;;;23.00;14.65;;;;;;;;;;10263815;28;20502;-73
2022/09/27 11:39:50;;;;;;;19.05;12.52;;;;;;;;;;10263134;28;20023;-73
2022/09/27 11:45:00;;;;;;;22.85;14.95;;;;;;;;;;10248023;28;20508;-76
2022/09/27 11:50:27;;;;;;;21.30;13.32;;;;;;;;;;10256760;28;20133;-75
2022/09/27 11:55:46;;;;;;;23.63;12.70;;;;;;;;;;10259371;28;20039;-74
2022/09/27 12:01:00;;;;;;;15.65;10.18;;;;;;;;;;10263330;28;20034;-73
2022/09/27 12:06:21;;;;;;;17.98;9.43;;;;;;;;;;10245621;28;20061;-73
2022/09/27 12:11:36;;;;;;;10.90;7.57;;;;;;;;;;10280272;28;20039;-74
2022/09/27 12:16:38;;;;;;;10.93;6.72;;;;;;;;;;10278679;28;20476;-80
2022/09/27 12:21:39;;;;;;;20.05;6.28;;;;;;;;;;10261423;28;20027;-74
2022/09/27 12:26:41;;;;;;;15.90;5.60;;;;;;;;;;10278893;28;20022;-73
2022/09/27 12:31:53;;;;;;;12.20;5.00;;;;;;;;;;10257279;28;20062;-73
2022/09/27 12:37:09;;;;;;;5.38;4.15;;;;;;;;;;10258542;28;20035;-76
2022/09/27 12:42:17;;;;;;;7.07;5.10;;;;;;;;;;10253773;28;20031;-75
2022/09/27 12:47:18;;;;;;;11.95;4.90;;;;;;;;;;10256149;28;20028;-72
2022/09/27 12:52:24;;;;;;;6.13;4.57;;;;;;;;;;10262472;28;20485;-74
2022/09/27 12:57:43;;;;;;;5.38;3.53;;;;;;;;;;10261151;28;20577;-73
2022/09/27 13:02:54;;;;;;;6.85;4.88;;;;;;;;;;10256692;28;20035;-76
2022/09/27 13:08:13;;;;;;;4.45;3.85;;;;;;;;;;10253916;28;20283;-77
2022/09/27 13:13:15;;;;;;;4.70;3.60;;;;;;;;;;10251525;28;20051;-80
2022/09/27 13:18:28;;;;;;;4.72;3.30;;;;;;;;;;10257601;28;20054;-75
2022/09/27 13:23:29;;;;;;;3.50;3.13;;;;;;;;;;10251237;28;20033;-75
2022/09/27 13:28:32;;;;;;;9.10;3.58;;;;;;;;;;10277963;28;20023;-78
2022/09/27 13:33:38;;;;;;;6.95;3.08;;;;;;;;;;10253300;28;20022;-73
2022/09/27 13:38:39;;;;;;;4.53;3.22;;;;;;;;;;10254754;28;20042;-80
2022/09/27 13:43:57;;;;;;;2.50;2.20;;;;;;;;;;10260643;28;20512;-79
2022/09/27 13:49:00;;;;;;;6.50;2.20;;;;;;;;;;10286239;28;20660;-75
2022/09/27 13:54:03;;;;;;;5.63;2.50;;;;;;;;;;10256900;28;20022;-75
2022/09/27 13:59:15;;;;;;;6.07;2.50;;;;;;;;;;10257097;28;20074;-76
2022/09/27 14:04:16;;;;;;;10.07;3.22;;;;;;;;;;10266726;28;20030;-77
2022/09/27 14:09:19;;;;;;;4.60;2.25;;;;;;;;;;10276731;28;20096;-77
2022/09/27 14:14:24;;;;;;;5.97;3.38;;;;;;;;;;10259332;28;20051;-73
2022/09/27 14:19:25;;;;;;;10.10;3.60;;;;;;;;;;10259756;28;20027;-77
2022/09/27 14:24:43;;;;;;;7.68;3.22;;;;;;;;;;10255863;28;20022;-73
2022/09/27 14:29:46;;;;;;;8.60;3.13;;;;;;;;;;10251747;28;20030;-75
2022/09/27 14:35:01;;;;;;;11.23;3.60;;;;;;;;;;10254865;28;20027;-79
2022/09/27 14:40:05;;;;;;;4.88;3.10;;;;;;;;;;10248581;28;20019;-77
2022/09/27 14:45:14;;;;;;;6.93;3.10;;;;;;;;;;10258070;28;20533;-80
2022/09/27 14:50:21;;;;;;;5.38;3.33;;;;;;;;;;10257752;28;20398;-74
2022/09/27 14:55:23;;;;;;;10.18;4.28;;;;;;;;;;10253858;28;20026;-76
2022/09/27 15:00:25;;;;;;;5.72;3.03;;;;;;;;;;10274797;28;20533;-76
2022/09/27 15:05:26;;;;;;;4.13;2.58;;;;;;;;;;10277282;28;20101;-78
2022/09/27 15:10:30;;;;;;;3.88;2.58;;;;;;;;;;10262766;28;20038;-79
2022/09/27 15:15:34;;;;;;;9.02;3.97;;;;;;;;;;10260529;28;20058;-76
2022/09/27 15:20:34;;;;;;;3.40;1.60;;;;;;;;;;10260411;28;20122;-72
2022/09/27 15:25:42;;;;;;;8.48;1.20;;;;;;;;;;10280143;28;20104;-74
2022/09/27 15:30:54;;;;;;;11.57;2.42;;;;;;;;;;10258954;28;20474;-74
2022/09/27 15:36:01;;;;;;;10.20;2.58;;;;;;;;;;10262501;28;20073;-80
2022/09/27 15:41:03;;;;;;;5.30;1.77;;;;;;;;;;10261148;28;20378;-76
2022/09/27 15:46:24;;;;;;;4.28;1.83;;;;;;;;;;10259391;28;20026;-76
2022/09/27 15:51:41;;;;;;;3.83;1.98;;;;;;;;;;10256974;28;20421;-74
2022/09/27 15:56:41;;;;;;;10.32;1.92;;;;;;;;;;10263115;28;20035;-73
2022/09/27 16:01:41;;;;;;;4.53;1.80;;;;;;;;;;10284404;23;20046;-73
2022/09/27 16:06:43;;;;;;;3.63;2.10;;;;;;;;;;10258083;28;20037;-76
2022/09/27 16:11:44;;;;;;;9.13;2.65;;;;;;;;;;10265823;28;20234;-77
2022/09/27 16:16:46;;;;;;;6.05;2.67;;;;;;;;;;10261651;28;20489;-76
2022/09/27 16:21:47;;;;;;;7.45;1.83;;;;;;;;;;10255528;28;20034;-73
2022/09/27 16:26:47;;;;;;;6.93;2.03;;;;;;;;;;10260111;28;20027;-79
2022/09/27 16:31:48;;;;;;;9.23;2.53;;;;;;;;;;10258673;28;20035;-77
2022/09/27 16:36:49;;;;;;;6.40;2.22;;;;;;;;;;10255614;28;20027;-73
2022/09/27 16:41:51;;;;;;;12.57;3.13;;;;;;;;;;10275328;28;20070;-76
2022/09/27 16:46:51;;;;;;;13.25;3.70;;;;;;;;;;10269815;28;20023;-77
2022/09/27 16:52:00;;;;;;;7.32;2.63;;;;;;;;;;10258603;28;20485;-77
2022/09/27 16:57:01;;;;;;;12.73;4.47;;;;;;;;;;10259430;28;20027;-79
2022/09/27 17:02:02;;;;;;;7.68;3.85;;;;;;;;;;10261812;28;20058;-79
2022/09/27 17:07:02;;;;;;;8.45;4.63;;;;;;;;;;10261317;28;20405;-78
2022/09/27 17:12:02;;;;;;;8.40;3.65;;;;;;;;;;10261746;28;20033;-77
2022/09/27 17:17:02;;;;;;;7.20;3.03;;;;;;;;;;10259906;28;20532;-74
2022/09/27 17:22:03;;;;;;;6.90;3.72;;;;;;;;;;10258472;28;20027;-78
2022/09/27 17:27:03;;;;;;;8.75;4.30;;;;;;;;;;10255927;28;20128;-76
2022/09/27 17:32:07;;;;;;;6.03;3.80;;;;;;;;;;10254113;28;20030;-76
2022/09/27 17:37:07;;;;;;;16.13;5.43;;;;;;;;;;10251789;28;20518;-76
2022/09/27 17:42:08;;;;;;;101.47;45.67;;;;;;;;;;10249991;28;20038;-77
2022/09/27 17:52:29;;;;;;;8.05;5.22;;;;;;;;;;10266830;28;20026;-76
2022/09/27 17:57:30;;;;;;;12.88;5.45;;;;;;;;;;10248735;28;20026;-74
2022/09/27 18:02:30;;;;;;;8.15;4.85;;;;;;;;;;10230911;28;20054;-74
2022/09/27 18:07:32;;;;;;;12.23;6.32;;;;;;;;;;10255284;28;20030;-80
2022/09/27 18:12:33;;;;;;;14.32;6.65;;;;;;;;;;10253603;28;20035;-74
2022/09/27 18:17:35;;;;;;;11.13;6.00;;;;;;;;;;10248856;28;20102;-77
2022/09/27 18:22:35;;;;;;;15.50;8.32;;;;;;;;;;10251515;28;20023;-74
2022/09/27 18:27:35;;;;;;;17.60;7.55;;;;;;;;;;10256447;28;20085;-74
2022/09/27 18:32:35;;;;;;;19.45;7.70;;;;;;;;;;10259132;28;20122;-77
2022/09/27 18:37:36;;;;;;;16.70;8.25;;;;;;;;;;10260841;28;20030;-73
2022/09/27 18:42:36;;;;;;;26.02;10.10;;;;;;;;;;10245581;28;20533;-75
2022/09/27 18:47:36;;;;;;;16.88;8.40;;;;;;;;;;10267339;28;20019;-74
2022/09/27 18:52:36;;;;;;;17.38;8.02;;;;;;;;;;10263987;28;20073;-76
2022/09/27 18:57:36;;;;;;;14.35;8.20;;;;;;;;;;10267613;28;20031;-73
2022/09/27 19:02:37;;;;;;;17.65;8.40;;;;;;;;;;10265488;28;20089;-72
2022/09/27 19:07:39;;;;;;;15.48;8.05;;;;;;;;;;10265839;28;20093;-77
2022/09/27 19:12:40;;;;;;;18.10;8.43;;;;;;;;;;10267713;28;20026;-76
2022/09/27 19:17:40;;;;;;;20.70;9.52;;;;;;;;;;10264396;28;20018;-74
2022/09/27 19:22:40;;;;;;;22.08;11.18;;;;;;;;;;10261287;28;20065;-79
2022/09/27 19:27:41;;;;;;;16.60;9.82;;;;;;;;;;10260940;28;20027;-79
2022/09/27 19:32:41;;;;;;;19.48;9.35;;;;;;;;;;10258254;28;20031;-72
2022/09/27 19:37:41;;;;;;;21.15;11.60;;;;;;;;;;10257029;28;20058;-77
2022/09/27 19:42:41;;;;;;;18.17;10.90;;;;;;;;;;10263678;28;20027;-74
2022/09/27 19:47:42;;;;;;;26.45;11.23;;;;;;;;;;10278016;28;20030;-71
2022/09/27 19:52:42;;;;;;;17.00;8.85;;;;;;;;;;10267281;28;20035;-73
2022/09/27 19:57:42;;;;;;;21.75;10.38;;;;;;;;;;10264524;28;20042;-74
2022/09/27 20:02:42;;;;;;;19.50;10.65;;;;;;;;;;10266472;28;20082;-77
2022/09/27 20:07:44;;;;;;;24.42;12.45;;;;;;;;;;10266562;28;20027;-77
2022/09/27 20:12:47;;;;;;;23.95;11.93;;;;;;;;;;10266338;28;20025;-73
2022/09/27 20:17:48;;;;;;;20.67;12.20;;;;;;;;;;10257209;28;20029;-79
2022/09/27 20:23:09;;;;;;;26.42;12.40;;;;;;;;;;10495870;28;20092;-74
2022/09/27 20:28:10;;;;;;;21.50;12.43;;;;;;;;;;10431134;28;20025;-75
2022/09/27 20:38:30;;;;;;;21.20;12.05;;;;;;;;;;10471223;28;20542;-74
2022/09/27 20:43:31;;;;;;;20.33;11.95;;;;;;;;;;10457419;28;20025;-77
2022/09/27 20:48:31;;;;;;;23.80;12.55;;;;;;;;;;10453340;28;20027;-78
2022/09/27 20:53:32;;;;;;;21.05;11.73;;;;;;;;;;10448563;28;20021;-74
2022/09/27 20:58:32;;;;;;;23.48;12.13;;;;;;;;;;10449284;28;20119;-74
2022/09/27 21:03:33;;;;;;;26.25;13.68;;;;;;;;;;10453495;28;20032;-77
2022/09/27 21:08:34;;;;;;;24.00;13.07;;;;;;;;;;10451397;28;20021;-80
2022/09/27 21:13:34;;;;;;;24.20;12.30;;;;;;;;;;10450571;28;20017;-76
2022/09/27 21:18:35;;;;;;;20.53;10.90;;;;;;;;;;10449867;28;20045;-74
2022/09/27 21:23:36;;;;;;;23.77;12.77;;;;;;;;;;10439996;28;20271;-73
2022/09/27 21:28:40;;;;;;;24.05;12.55;;;;;;;;;;10442751;28;20028;-73
2022/09/27 21:33:41;;;;;;;20.35;11.98;;;;;;;;;;10416153;28;20026;-73
2022/09/27 21:38:41;;;;;;;18.98;9.60;;;;;;;;;;10426573;28;20022;-74
2022/09/27 21:43:43;;;;;;;17.13;7.70;;;;;;;;;;10411192;28;20018;-74
2022/09/27 21:48:44;;;;;;;12.32;6.30;;;;;;;;;;10422285;28;20024;-76
2022/09/27 21:53:49;;;;;;;12.15;6.30;;;;;;;;;;10420876;28;20441;-74
2022/09/27 21:58:50;;;;;;;17.00;10.25;;;;;;;;;;10424701;28;20017;-75
2022/09/27 22:03:51;;;;;;;26.67;12.30;;;;;;;;;;10423158;28;20005;-75
2022/09/27 22:08:51;;;;;;;19.08;11.20;;;;;;;;;;10421759;28;20017;-73
2022/09/27 22:13:52;;;;;;;14.18;8.63;;;;;;;;;;10421099;28;20021;-74
2022/09/27 22:18:53;;;;;;;17.60;7.53;;;;;;;;;;10423072;28;20052;-74
2022/09/27 22:23:54;;;;;;;12.98;7.32;;;;;;;;;;10419628;28;20478;-74
2022/09/27 22:28:55;;;;;;;13.45;6.18;;;;;;;;;;10419381;28;20021;-73
2022/09/27 22:33:57;;;;;;;13.90;5.88;;;;;;;;;;10422780;28;20499;-74
2022/09/27 22:38:57;;;;;;;11.05;5.97;;;;;;;;;;10420062;28;20109;-73
2022/09/27 22:43:57;;;;;;;10.63;5.50;;;;;;;;;;10419517;28;20032;-74
2022/09/27 22:48:57;;;;;;;11.98;6.57;;;;;;;;;;10422003;28;20478;-74
2022/09/27 22:53:58;;;;;;;11.07;6.80;;;;;;;;;;10418477;28;20030;-75
2022/09/27 22:58:58;;;;;;;10.48;6.45;;;;;;;;;;10416990;28;20048;-77
2022/09/27 23:03:58;;;;;;;13.05;6.38;;;;;;;;;;10421538;28;20091;-74
2022/09/27 23:09:00;;;;;;;13.88;6.63;;;;;;;;;;10420441;28;20485;-78
2022/09/27 23:14:03;;;;;;;11.18;6.78;;;;;;;;;;10420184;28;20021;-80
2022/09/27 23:19:03;;;;;;;10.57;6.70;;;;;;;;;;10419086;28;20128;-78
2022/09/27 23:24:03;;;;;;;14.38;7.18;;;;;;;;;;10419778;28;20022;-76
2022/09/27 23:29:04;;;;;;;9.47;6.10;;;;;;;;;;10417029;28;20518;-74
2022/09/27 23:34:04;;;;;;;14.00;6.22;;;;;;;;;;10418805;28;20021;-81
2022/09/27 23:39:04;;;;;;;11.35;5.63;;;;;;;;;;10416360;28;20099;-76
2022/09/27 23:44:04;;;;;;;11.02;6.47;;;;;;;;;;10420129;28;20022;-73
2022/09/27 23:49:05;;;;;;;13.40;5.88;;;;;;;;;;10418546;28;20017;-73
2022/09/27 23:54:05;;;;;;;10.93;5.78;;;;;;;;;;10421149;28;20025;-76
2022/09/27 23:59:06;;;;;;;54.85;24.85;;;;;;;;;;10416809;28;20021;-81
